»·PEaware :: FDX564 KLAS-KOAK

FDX564 :: KLAS-KOAK

FLIGHT INFORMATION

Flight Status: Arrived
Operator:
Federal Express
More flights by this operator :: More flights under this callsign
Pilot: Georg L. (13308)
Aircraft: AIRBUS A300B4-600
(A306)
More flights by this aircraft type
Origin: KLAS McCarran Intl
United States
Destination: KOAK Metro Oakland Intl
United States
More flights between these airports :: More routes between these airports
Route: +SHEAD1 KENNO Q15 RUSME OAKES2
File this flight plan on PilotEdge
Remarks:
Altitude:
(Current/Filed)
30,000ft
Speed:
(Current/Filed)
463kts
Departed: 17-Sep-20 10:03 AM
Arrived: 17-Sep-20 11:07 AM
Distance/Time
Traveled:
353nm/1:04
Distance/Time
To Go:
Arrived

Flight Plot

Page will automatically refresh every two minutes.

Flight plan parsing failed; only flown route is shown


Map Options




Map Legend


Flown Route
Filed Route
Departure Airport
Arrival Airport
Navaid (VOR, NDB)
Fix

Horizontal Profiles

Position Reports

Time Latitude Longitude Heading Altitude Ground
Speed
17-Sep-20 09:26 36.082412 -115.125488 90 2047ft 0kts
17-Sep-20 09:27 36.082412 -115.125488 90 2047ft 0kts
17-Sep-20 09:28 36.082412 -115.125488 90 2047ft 0kts
17-Sep-20 09:29 36.082412 -115.125488 90 2047ft 0kts
17-Sep-20 09:30 36.082412 -115.125488 90 2047ft 0kts
17-Sep-20 09:31 36.082412 -115.125488 90 2047ft 0kts
17-Sep-20 09:32 36.082412 -115.125488 90 2047ft 0kts
17-Sep-20 09:33 36.082412 -115.125488 90 2047ft 0kts
17-Sep-20 09:34 36.082412 -115.125488 90 2046ft 0kts
17-Sep-20 09:35 36.082412 -115.125488 90 2046ft 0kts
17-Sep-20 09:36 36.082412 -115.125488 90 2046ft 0kts
17-Sep-20 09:37 36.082412 -115.125488 90 2046ft 0kts
17-Sep-20 09:38 36.082412 -115.125488 90 2046ft 0kts
17-Sep-20 09:39 36.082412 -115.125488 90 2046ft 0kts
17-Sep-20 09:40 36.082412 -115.125488 90 2046ft 0kts
17-Sep-20 09:41 36.082412 -115.125488 90 2046ft 0kts
17-Sep-20 09:42 36.082412 -115.125488 90 2046ft 0kts
17-Sep-20 09:43 36.082412 -115.125488 90 2046ft 0kts
17-Sep-20 09:44 36.082412 -115.125488 90 2046ft 0kts
17-Sep-20 09:45 36.082412 -115.125488 90 2046ft 0kts
17-Sep-20 09:46 36.082412 -115.125488 90 2046ft 0kts
17-Sep-20 09:47 36.082412 -115.125488 90 2046ft 0kts
17-Sep-20 09:48 36.082412 -115.125488 90 2046ft 0kts
17-Sep-20 09:49 36.082412 -115.125488 90 2046ft 0kts
17-Sep-20 09:50 36.082412 -115.125488 90 2046ft 0kts
17-Sep-20 09:51 36.082412 -115.125488 90 2046ft 0kts
17-Sep-20 09:52 36.082412 -115.125488 90 2047ft 0kts
17-Sep-20 09:53 36.082450 -115.126187 113 2047ft 2kts
17-Sep-20 09:54 36.082652 -115.126525 140 2047ft 0kts
17-Sep-20 09:55 36.082651 -115.126525 140 2047ft 0kts
17-Sep-20 09:56 36.082651 -115.126525 140 2047ft 0kts
17-Sep-20 09:57 36.082380 -115.126377 164 2047ft 5kts
17-Sep-20 09:58 36.080202 -115.126411 179 2047ft 15kts
17-Sep-20 09:59 36.078263 -115.123965 89 2046ft 17kts
17-Sep-20 10:00 36.077521 -115.121602 133 2043ft 0kts
17-Sep-20 10:01 36.076416 -115.121869 260 2045ft 11kts
17-Sep-20 10:02 36.076362 -115.161189 269 2499ft 213kts
17-Sep-20 10:03 36.068441 -115.241184 236 5208ft 275kts
17-Sep-20 10:04 36.000286 -115.287225 200 7069ft 290kts
17-Sep-20 10:05 35.935462 -115.342716 224 8567ft 292kts
17-Sep-20 10:06 35.888085 -115.421954 258 9296ft 292kts
17-Sep-20 10:07 35.887815 -115.523324 269 10330ft 318kts
17-Sep-20 10:08 35.890321 -115.647268 269 11367ft 387kts
17-Sep-20 10:09 35.892744 -115.782983 269 15678ft 401kts
17-Sep-20 10:10 35.900809 -115.914791 283 19326ft 418kts
17-Sep-20 10:11 35.956179 -116.043193 314 22350ft 439kts
17-Sep-20 10:12 36.047990 -116.147729 315 23133ft 445kts
17-Sep-20 10:13 36.139868 -116.252959 315 23144ft 444kts
17-Sep-20 10:14 36.233396 -116.360578 315 23632ft 449kts
17-Sep-20 10:15 36.327201 -116.468714 315 25380ft 448kts
17-Sep-20 10:16 36.422186 -116.578583 314 26271ft 459kts
17-Sep-20 10:17 36.515990 -116.688454 313 27112ft 463kts
17-Sep-20 10:18 36.619373 -116.786414 324 28311ft 468kts
17-Sep-20 10:19 36.730601 -116.872035 324 30080ft 465kts
17-Sep-20 10:20 36.840236 -116.955981 324 30165ft 461kts
17-Sep-20 10:21 36.949783 -117.039852 324 30276ft 462kts
17-Sep-20 10:22 37.059917 -117.124287 324 30303ft 463kts
17-Sep-20 10:23 37.171749 -117.210226 324 30298ft 463kts
17-Sep-20 10:24 37.285994 -117.298283 324 30298ft 464kts
17-Sep-20 10:25 37.385021 -117.399026 314 30290ft 458kts
17-Sep-20 10:26 37.477546 -117.514839 307 30605ft 457kts
17-Sep-20 10:27 37.557602 -117.640547 285 30250ft 440kts
17-Sep-20 10:28 37.571343 -117.794449 274 30247ft 435kts
17-Sep-20 10:29 37.590553 -117.945931 275 30223ft 436kts
17-Sep-20 10:30 37.610390 -118.097689 275 30220ft 435kts
17-Sep-20 10:31 37.629954 -118.248711 275 30218ft 435kts
17-Sep-20 10:32 37.649283 -118.399394 275 30243ft 434kts
17-Sep-20 10:33 37.668390 -118.549809 275 30345ft 434kts
17-Sep-20 10:34 37.687359 -118.700610 275 30396ft 434kts
17-Sep-20 10:35 37.706206 -118.852325 274 30276ft 436kts
17-Sep-20 10:36 37.724807 -119.003640 274 30233ft 436kts
17-Sep-20 10:37 37.743100 -119.152992 274 29203ft 416kts
17-Sep-20 10:38 37.761272 -119.303445 274 28220ft 447kts
17-Sep-20 10:39 37.779536 -119.458196 274 27091ft 440kts
17-Sep-20 10:40 37.797411 -119.610703 274 26078ft 435kts
17-Sep-20 10:41 37.815314 -119.766771 273 25106ft 452kts
17-Sep-20 10:42 37.833017 -119.923838 273 24241ft 447kts
17-Sep-20 10:43 37.850435 -120.080072 273 24214ft 448kts
17-Sep-20 10:44 37.867602 -120.235107 273 24061ft 432kts
17-Sep-20 10:45 37.884113 -120.382586 273 24057ft 399kts
17-Sep-20 10:46 37.862744 -120.504384 236 24070ft 363kts
17-Sep-20 10:47 37.836091 -120.628707 254 23800ft 364kts
17-Sep-20 10:48 37.814806 -120.753394 254 22061ft 357kts
17-Sep-20 10:49 37.794006 -120.874739 254 20421ft 348kts
17-Sep-20 10:50 37.773030 -120.993682 254 18741ft 341kts
17-Sep-20 10:51 37.752750 -121.109272 254 17111ft 333kts
17-Sep-20 10:52 37.733167 -121.221493 254 14906ft 324kts
17-Sep-20 10:53 37.710318 -121.329940 248 11731ft 316kts
17-Sep-20 10:54 37.682808 -121.434601 249 10816ft 305kts
17-Sep-20 10:55 37.657967 -121.529778 249 9635ft 273kts
17-Sep-20 10:57 37.634281 -121.620374 250 8467ft 273kts
17-Sep-20 10:58 37.614507 -121.712163 262 7255ft 269kts
17-Sep-20 10:59 37.608123 -121.805485 264 6024ft 265kts
17-Sep-20 11:00 37.607176 -121.897402 269 4777ft 260kts
17-Sep-20 11:01 37.606854 -121.983985 267 4207ft 232kts
17-Sep-20 11:02 37.609729 -122.060983 277 3228ft 206kts
17-Sep-20 11:03 37.638732 -122.120424 309 2157ft 206kts
17-Sep-20 11:04 37.672267 -122.170486 308 1147ft 163kts
17-Sep-20 11:05 37.700018 -122.211817 309 118ft 148kts
17-Sep-20 11:06 37.716691 -122.237049 309 19ft 43kts
17-Sep-20 11:07 37.719761 -122.238876 131 19ft 10kts
17-Sep-20 11:08 37.716175 -122.232539 132 19ft 32kts
17-Sep-20 11:09 37.711793 -122.225739 86 19ft 11kts
17-Sep-20 11:10 37.714006 -122.220691 45 19ft 18kts
17-Sep-20 11:10 37.716257 -122.220228 42 19ft 10kts
17-Sep-20 11:12 37.717116 -122.220206 309 19ft 0kts
17-Sep-20 11:13 37.717116 -122.220206 309 19ft 0kts
17-Sep-20 11:14 37.717116 -122.220206 309 19ft 0kts
17-Sep-20 11:14 37.717116 -122.220206 309 19ft 0kts
17-Sep-20 11:15 37.717116 -122.220206 309 19ft 0kts
17-Sep-20 11:17 37.717116 -122.220206 309 19ft 0kts
17-Sep-20 11:17 37.717116 -122.220206 309 19ft 0kts

Navigation Log

Ident Type
Flight plan parsing failed, navigation log unavailable